createdAt,value
2019-05-11T00:00:25.815Z,8.70
2019-05-11T00:02:54.253Z,8.70
2019-05-11T00:05:22.717Z,8.70
2019-05-11T00:07:51.215Z,8.70
2019-05-11T00:10:23.222Z,8.70
2019-05-11T00:12:50.065Z,8.70
2019-05-11T00:15:18.507Z,8.60
2019-05-11T00:17:47.240Z,8.70
2019-05-11T00:20:17.632Z,8.70
2019-05-11T00:22:46.365Z,8.70
2019-05-11T00:25:16.171Z,8.80
2019-05-11T00:27:44.613Z,8.80
2019-05-11T00:30:13.216Z,8.80
2019-05-11T00:32:41.641Z,8.80
2019-05-11T00:35:10.280Z,8.80
2019-05-11T00:37:39.669Z,8.90
2019-05-11T00:40:14.375Z,8.90
2019-05-11T00:42:38.944Z,9.00
2019-05-11T00:45:07.992Z,9.00
2019-05-11T00:47:36.423Z,9.00
2019-05-11T00:50:07.492Z,9.00
2019-05-11T00:52:35.943Z,9.00
2019-05-11T00:55:25.627Z,9.00
2019-05-11T00:57:54.051Z,9.00
2019-05-11T01:00:24.643Z,9.00
2019-05-11T01:02:53.090Z,9.00
2019-05-11T01:05:21.824Z,8.90
2019-05-11T01:07:50.263Z,8.90
2019-05-11T01:10:25.700Z,8.90
2019-05-11T01:12:50.171Z,8.90
2019-05-11T01:15:18.940Z,8.80
2019-05-11T01:17:47.725Z,8.70
2019-05-11T01:20:18.744Z,8.60
2019-05-11T01:22:47.448Z,8.50
2019-05-11T01:25:15.972Z,8.50
2019-05-11T01:27:44.641Z,8.40
2019-05-11T01:30:14.755Z,8.40
2019-05-11T01:32:44.101Z,8.40
2019-05-11T01:35:12.603Z,8.50
2019-05-11T01:37:41.032Z,8.40
2019-05-11T01:40:10.111Z,8.40
2019-05-11T01:42:39.472Z,8.40
2019-05-11T01:45:08.039Z,8.40
2019-05-11T01:47:36.536Z,8.40
2019-05-11T01:50:27.119Z,8.40
2019-05-11T01:52:55.600Z,8.40
2019-05-11T01:55:24.023Z,8.40
2019-05-11T01:57:52.731Z,8.40
2019-05-11T02:00:21.162Z,8.30
2019-05-11T02:02:50.958Z,8.40
2019-05-11T02:05:28.485Z,8.30
2019-05-11T02:07:58.048Z,8.30
2019-05-11T02:10:26.500Z,8.30
2019-05-11T02:12:56.155Z,8.30
2019-05-11T02:15:27.638Z,8.20
2019-05-11T02:17:56.965Z,8.20
2019-05-11T02:20:25.480Z,8.20
2019-05-11T02:22:53.907Z,8.20
2019-05-11T02:25:23.500Z,8.20
2019-05-11T02:27:51.940Z,8.20
2019-05-11T02:30:20.442Z,8.20
2019-05-11T02:32:48.916Z,8.20
2019-05-11T02:35:18.563Z,8.20
2019-05-11T02:37:48.285Z,8.30
2019-05-11T02:40:18.208Z,8.20
2019-05-11T02:42:46.632Z,8.20
2019-05-11T02:45:17.219Z,8.20
2019-05-11T02:47:45.632Z,8.20
2019-05-11T02:50:14.313Z,8.30
2019-05-11T02:52:42.807Z,8.20
2019-05-11T02:55:12.224Z,8.30
2019-05-11T02:57:40.667Z,8.30
2019-05-11T03:00:10.534Z,8.30
2019-05-11T03:02:39.934Z,8.30
2019-05-11T03:05:08.429Z,8.30
2019-05-11T03:07:56.552Z,8.40
2019-05-11T03:10:26.047Z,8.40
2019-05-11T03:12:56.391Z,8.40
2019-05-11T03:15:26.800Z,8.40
2019-05-11T03:17:56.589Z,8.40
2019-05-11T03:20:25.081Z,8.40
2019-05-11T03:22:53.524Z,8.40
2019-05-11T03:25:22.247Z,8.30
2019-05-11T03:27:51.596Z,8.30
2019-05-11T03:30:21.661Z,8.30
2019-05-11T03:32:51.401Z,8.20
2019-05-11T03:35:20.079Z,8.20
2019-05-11T03:37:48.513Z,8.20
2019-05-11T03:40:17.989Z,8.20
2019-05-11T03:42:46.412Z,8.10
2019-05-11T03:45:15.425Z,8.10
2019-05-11T03:47:43.946Z,8.10
2019-05-11T03:50:12.886Z,8.10
2019-05-11T03:52:41.376Z,8.10
2019-05-11T03:55:30.989Z,8.10
2019-05-11T03:57:59.771Z,8.10
2019-05-11T04:00:28.178Z,8.10
2019-05-11T04:02:56.957Z,8.10
2019-05-11T04:05:25.661Z,8.00
2019-05-11T04:07:54.108Z,8.10
2019-05-11T04:10:25.298Z,8.10
2019-05-11T04:12:53.708Z,8.10
2019-05-11T04:15:22.453Z,8.10
2019-05-11T04:17:51.240Z,8.10
2019-05-11T04:20:19.672Z,8.10
2019-05-11T04:22:48.112Z,8.10
2019-05-11T04:25:16.533Z,8.10
2019-05-11T04:27:44.975Z,8.10
2019-05-11T04:30:14.051Z,8.10
2019-05-11T04:32:42.485Z,8.10
2019-05-11T04:35:11.355Z,8.10
2019-05-11T04:37:39.804Z,8.10
2019-05-11T04:40:08.448Z,8.10
2019-05-11T04:42:53.205Z,8.20
2019-05-11T04:45:09.026Z,8.20
2019-05-11T04:47:37.447Z,8.20
2019-05-11T04:50:09.214Z,8.20
2019-05-11T04:52:37.649Z,8.20
2019-05-11T04:55:09.343Z,8.30
2019-05-11T04:57:37.761Z,8.30
2019-05-11T05:00:27.064Z,8.30
2019-05-11T05:02:56.828Z,8.30
2019-05-11T05:05:25.263Z,8.30
2019-05-11T05:08:07.399Z,8.30
2019-05-11T05:10:23.831Z,8.30
2019-05-11T05:12:53.488Z,8.30
2019-05-11T05:15:22.402Z,8.30
2019-05-11T05:17:51.218Z,8.30
2019-05-11T05:20:39.255Z,8.30
2019-05-11T05:23:07.945Z,8.30
2019-05-11T05:25:36.388Z,8.30
2019-05-11T05:28:05.109Z,8.30
2019-05-11T05:30:33.536Z,8.40
2019-05-11T05:33:01.988Z,8.40
2019-05-11T05:35:30.680Z,8.40
2019-05-11T05:37:59.492Z,8.50
2019-05-11T05:40:28.264Z,8.50
2019-05-11T05:42:57.052Z,8.60
2019-05-11T05:45:25.469Z,8.60
2019-05-11T05:47:53.901Z,8.70
2019-05-11T05:50:22.323Z,8.80
2019-05-11T05:52:50.779Z,8.90
2019-05-11T05:55:19.196Z,8.80
2019-05-11T05:57:47.681Z,8.80
2019-05-11T06:00:18.091Z,8.90
2019-05-11T06:02:46.515Z,9.00
2019-05-11T06:05:15.015Z,9.10
2019-05-11T06:07:44.404Z,9.10
2019-05-11T06:10:13.565Z,9.10
2019-05-11T06:12:42.013Z,9.10
2019-05-11T06:15:10.939Z,9.20
2019-05-11T06:17:40.553Z,9.20
2019-05-11T06:20:09.799Z,9.20
2019-05-11T06:22:38.355Z,9.20
2019-05-11T06:25:06.941Z,9.40
2019-05-11T06:27:36.661Z,9.50
2019-05-11T06:30:07.861Z,9.70
2019-05-11T06:32:36.331Z,9.70
2019-05-11T06:35:08.875Z,9.90
2019-05-11T06:37:37.391Z,10.00
2019-05-11T06:40:07.936Z,10.00
2019-05-11T06:42:36.396Z,9.90
2019-05-11T06:45:06.681Z,9.90
2019-05-11T06:47:36.299Z,9.90
2019-05-11T06:50:06.513Z,9.80
2019-05-11T06:52:35.290Z,9.80
2019-05-11T06:55:05.392Z,9.80
2019-05-11T06:57:33.827Z,9.80
2019-05-11T07:00:02.258Z,9.80
2019-05-11T07:02:31.258Z,9.80
2019-05-11T07:04:59.679Z,9.80
2019-05-11T07:07:28.383Z,9.80
2019-05-11T07:09:56.837Z,9.70
2019-05-11T07:12:27.623Z,9.70
2019-05-11T07:14:55.817Z,9.70
2019-05-11T07:17:25.240Z,9.80
2019-05-11T07:19:54.625Z,9.80
2019-05-11T07:22:23.380Z,9.80
2019-05-11T07:24:52.771Z,9.80
2019-05-11T07:27:21.224Z,9.80
2019-05-11T07:29:57.565Z,9.70
2019-05-11T07:32:29.320Z,9.70
2019-05-11T07:34:58.103Z,9.70
2019-05-11T07:37:28.040Z,9.60
2019-05-11T07:39:58.141Z,9.60
2019-05-11T07:42:28.585Z,9.70
2019-05-11T07:44:58.316Z,9.70
2019-05-11T07:47:27.775Z,9.70
2019-05-11T07:49:57.891Z,9.80
2019-05-11T07:52:28.568Z,9.70
2019-05-11T07:54:58.078Z,9.70
2019-05-11T07:57:28.457Z,9.70
2019-05-11T07:59:57.909Z,9.80
2019-05-11T08:02:28.547Z,9.80
2019-05-11T08:04:58.680Z,9.80
2019-05-11T08:07:28.558Z,9.80
2019-05-11T08:09:58.706Z,9.80
2019-05-11T08:12:28.607Z,9.80
2019-05-11T08:15:06.006Z,9.80
2019-05-11T08:17:28.647Z,9.90
2019-05-11T08:19:58.115Z,9.90
2019-05-11T08:22:28.520Z,9.90
2019-05-11T08:24:58.682Z,9.80
2019-05-11T08:27:28.602Z,9.80
2019-05-11T08:29:57.982Z,9.80
2019-05-11T08:32:28.634Z,9.70
2019-05-11T08:34:58.323Z,9.60
2019-05-11T08:37:28.427Z,9.60
2019-05-11T08:39:58.634Z,9.50
2019-05-11T08:42:28.898Z,9.60
2019-05-11T08:45:15.277Z,9.50
2019-05-11T08:47:28.479Z,9.40
2019-05-11T08:49:58.906Z,9.50
2019-05-11T08:52:28.086Z,9.40
2019-05-11T08:54:57.750Z,9.40
2019-05-11T08:57:47.930Z,9.50
2019-05-11T09:00:17.924Z,9.40
2019-05-11T09:02:50.519Z,9.40
2019-05-11T09:05:18.668Z,9.30
2019-05-11T09:07:48.400Z,9.30
2019-05-11T09:10:18.546Z,9.20
2019-05-11T09:12:48.858Z,9.30
2019-05-11T09:15:32.625Z,9.30
2019-05-11T09:17:48.879Z,9.20
2019-05-11T09:20:23.336Z,9.20
2019-05-11T09:22:53.123Z,9.20
2019-05-11T09:25:22.456Z,9.10
2019-05-11T09:27:51.013Z,9.00
2019-05-11T09:30:20.829Z,9.00
2019-05-11T09:32:51.327Z,8.90
2019-05-11T09:35:19.820Z,8.90
2019-05-11T09:37:48.572Z,8.90
2019-05-11T09:40:18.210Z,9.00
2019-05-11T09:42:47.872Z,8.80
2019-05-11T09:45:18.720Z,8.80
2019-05-11T09:47:47.757Z,8.70
2019-05-11T09:50:17.924Z,8.70
2019-05-11T09:52:48.975Z,8.80
2019-05-11T09:55:19.917Z,8.80
2019-05-11T09:57:48.742Z,8.80
2019-05-11T10:00:18.324Z,8.80
2019-05-11T10:02:48.739Z,8.80
2019-05-11T10:05:18.864Z,8.80
2019-05-11T10:07:49.197Z,8.70
2019-05-11T10:10:18.652Z,8.70
2019-05-11T10:12:52.877Z,8.70
2019-05-11T10:15:20.795Z,8.70
2019-05-11T10:17:49.283Z,8.80
2019-05-11T10:20:18.319Z,8.90
2019-05-11T10:22:48.685Z,8.80
2019-05-11T10:25:18.307Z,8.80
2019-05-11T10:27:48.872Z,8.90
2019-05-11T10:30:18.747Z,9.10
2019-05-11T10:32:48.614Z,9.20
2019-05-11T10:35:19.453Z,9.20
2019-05-11T10:37:49.227Z,9.20
2019-05-11T10:40:18.936Z,9.30
2019-05-11T10:43:07.945Z,9.50
2019-05-11T10:45:37.853Z,9.50
2019-05-11T10:48:08.812Z,9.40
2019-05-11T10:50:38.399Z,9.60
2019-05-11T10:53:07.996Z,9.50
2019-05-11T10:55:38.734Z,9.60
2019-05-11T10:58:08.604Z,9.60
2019-05-11T11:00:38.785Z,9.70
2019-05-11T11:03:08.448Z,9.60
2019-05-11T11:05:38.529Z,9.60
2019-05-11T11:08:08.338Z,9.70
2019-05-11T11:10:38.006Z,9.60
2019-05-11T11:13:08.281Z,9.50
2019-05-11T11:15:38.076Z,9.50
2019-05-11T11:18:08.496Z,9.60
2019-05-11T11:20:38.429Z,9.70
2019-05-11T11:23:08.822Z,9.70
2019-05-11T11:25:37.653Z,9.80
2019-05-11T11:28:08.432Z,9.90
2019-05-11T11:30:40.275Z,10.00
2019-05-11T11:33:08.783Z,10.00
2019-05-11T11:35:38.494Z,10.00
2019-05-11T11:38:08.694Z,10.20
2019-05-11T11:40:38.724Z,10.50
2019-05-11T11:43:08.671Z,10.70
2019-05-11T11:45:38.611Z,10.90
2019-05-11T11:48:08.714Z,10.80
2019-05-11T11:50:40.347Z,10.80
2019-05-11T11:53:08.774Z,10.70
2019-05-11T11:55:38.991Z,10.70
2019-05-11T11:58:08.305Z,10.70
2019-05-11T12:00:39.160Z,10.80
2019-05-11T12:03:08.231Z,10.70
2019-05-11T12:05:38.563Z,10.70
2019-05-11T12:08:08.306Z,10.70
2019-05-11T12:10:38.202Z,10.70
2019-05-11T12:13:08.670Z,10.60
2019-05-11T12:15:38.742Z,10.70
2019-05-11T12:18:08.290Z,10.70
2019-05-11T12:20:38.933Z,10.50
2019-05-11T12:23:08.786Z,10.50
2019-05-11T12:25:40.373Z,10.70
2019-05-11T12:28:08.599Z,10.80
2019-05-11T12:30:37.668Z,10.70
2019-05-11T12:33:08.172Z,10.50
2019-05-11T12:35:37.789Z,10.50
2019-05-11T12:38:07.852Z,10.40
2019-05-11T12:40:38.678Z,10.40
2019-05-11T12:43:08.140Z,10.50
2019-05-11T12:45:37.659Z,10.70
2019-05-11T12:48:08.817Z,10.80
2019-05-11T12:50:37.876Z,10.80
2019-05-11T12:53:07.994Z,10.80
2019-05-11T12:55:38.103Z,10.90
2019-05-11T12:58:08.589Z,10.80
2019-05-11T13:00:39.105Z,10.60
2019-05-11T13:03:08.024Z,10.60
2019-05-11T13:05:37.770Z,10.70
2019-05-11T13:08:08.071Z,10.80
2019-05-11T13:10:38.913Z,10.80
2019-05-11T13:13:08.877Z,10.80
2019-05-11T13:15:38.744Z,10.90
2019-05-11T13:18:08.343Z,11.00
2019-05-11T13:20:37.784Z,11.10
2019-05-11T13:23:08.045Z,11.10
2019-05-11T13:25:38.598Z,11.30
2019-05-11T13:28:08.580Z,11.20
2019-05-11T13:30:38.244Z,11.00
2019-05-11T13:33:08.538Z,11.00
2019-05-11T13:35:37.736Z,11.10
2019-05-11T13:38:08.545Z,11.20
2019-05-11T13:40:38.184Z,11.30
2019-05-11T13:43:08.442Z,11.30
2019-05-11T13:45:38.724Z,11.30
2019-05-11T13:48:28.150Z,11.40
2019-05-11T13:50:58.263Z,11.40
2019-05-11T13:53:27.607Z,11.40
2019-05-11T13:55:58.650Z,11.60
2019-05-11T13:58:27.769Z,11.60
2019-05-11T14:00:58.534Z,11.50
2019-05-11T14:03:28.287Z,11.50
2019-05-11T14:05:58.238Z,11.30
2019-05-11T14:08:27.814Z,11.30
2019-05-11T14:10:58.060Z,11.40
2019-05-11T14:13:28.588Z,11.50
2019-05-11T14:15:58.708Z,11.40
2019-05-11T14:18:28.158Z,11.50
2019-05-11T14:20:58.631Z,11.50
2019-05-11T14:23:31.163Z,11.60
2019-05-11T14:25:58.327Z,11.70
2019-05-11T14:28:28.517Z,11.80
2019-05-11T14:30:58.117Z,11.80
2019-05-11T14:33:28.297Z,11.90
2019-05-11T14:35:57.901Z,11.90
2019-05-11T14:38:28.295Z,11.80
2019-05-11T14:40:58.624Z,11.80
2019-05-11T14:43:27.746Z,11.80
2019-05-11T14:45:57.865Z,11.80
2019-05-11T14:48:29.423Z,11.90
2019-05-11T14:50:59.056Z,12.00
2019-05-11T14:53:28.372Z,12.00
2019-05-11T14:55:58.918Z,12.00
2019-05-11T14:58:28.029Z,12.00
2019-05-11T15:00:58.326Z,12.10
2019-05-11T15:03:28.700Z,12.10
2019-05-11T15:05:58.242Z,12.10
2019-05-11T15:08:28.622Z,12.10
2019-05-11T15:10:57.915Z,12.10
2019-05-11T15:13:28.653Z,12.20
2019-05-11T15:15:58.523Z,12.20
2019-05-11T15:18:36.062Z,12.20
2019-05-11T15:20:58.727Z,12.20
2019-05-11T15:23:28.504Z,12.10
2019-05-11T15:25:58.677Z,12.10
2019-05-11T15:28:28.523Z,12.00
2019-05-11T15:30:58.692Z,12.00
2019-05-11T15:33:27.964Z,11.90
2019-05-11T15:35:58.320Z,11.90
2019-05-11T15:38:28.408Z,11.90
2019-05-11T15:41:17.663Z,12.00
2019-05-11T15:43:47.979Z,11.90
2019-05-11T15:46:19.501Z,11.80
2019-05-11T15:48:56.676Z,11.80
2019-05-11T15:51:18.828Z,12.00
2019-05-11T15:53:50.280Z,12.00
2019-05-11T15:56:19.097Z,12.00
2019-05-11T15:58:48.532Z,12.10
2019-05-11T16:01:18.622Z,12.20
2019-05-11T16:03:49.797Z,12.20
2019-05-11T16:06:18.606Z,12.10
2019-05-11T16:08:47.293Z,12.20
2019-05-11T16:11:18.113Z,12.10
2019-05-11T16:13:48.319Z,12.20
2019-05-11T16:16:16.719Z,12.20
2019-05-11T16:18:45.150Z,12.30
2019-05-11T16:21:14.570Z,12.30
2019-05-11T16:23:42.995Z,12.30
2019-05-11T16:26:11.428Z,12.20
2019-05-11T16:28:39.853Z,12.20
2019-05-11T16:31:09.479Z,12.20
2019-05-11T16:33:37.910Z,12.20
2019-05-11T16:36:09.013Z,12.20
2019-05-11T16:38:38.034Z,12.30
2019-05-11T16:41:09.080Z,12.30
2019-05-11T16:43:38.502Z,12.30
2019-05-11T16:46:08.695Z,12.40
2019-05-11T16:48:38.279Z,12.40
2019-05-11T16:51:08.705Z,12.40
2019-05-11T16:53:38.994Z,12.50
2019-05-11T16:56:09.699Z,12.50
2019-05-11T16:58:41.161Z,12.50
2019-05-11T17:01:11.416Z,12.60
2019-05-11T17:03:39.839Z,12.60
2019-05-11T17:06:08.557Z,12.60
2019-05-11T17:08:38.403Z,12.60
2019-05-11T17:11:08.364Z,12.50
2019-05-11T17:13:37.980Z,12.50
2019-05-11T17:16:28.350Z,12.50
2019-05-11T17:18:58.479Z,12.40
2019-05-11T17:21:29.387Z,12.40
2019-05-11T17:23:59.063Z,12.40
2019-05-11T17:26:28.391Z,12.40
2019-05-11T17:28:58.168Z,12.40
2019-05-11T17:31:27.061Z,12.40
2019-05-11T17:33:58.129Z,12.50
2019-05-11T17:36:27.898Z,12.50
2019-05-11T17:38:58.253Z,12.50
2019-05-11T17:41:27.942Z,12.50
2019-05-11T17:43:58.361Z,12.40
2019-05-11T17:46:46.321Z,12.40
2019-05-11T17:49:14.747Z,12.40
2019-05-11T17:51:43.192Z,12.40
2019-05-11T17:54:11.615Z,12.30
2019-05-11T17:56:40.075Z,12.30
2019-05-11T17:59:08.564Z,12.30
2019-05-11T18:01:38.923Z,12.20
2019-05-11T18:04:07.971Z,12.20
2019-05-11T18:06:56.105Z,12.20
2019-05-11T18:09:24.902Z,12.20
2019-05-11T18:11:53.592Z,12.20
2019-05-11T18:14:22.024Z,12.20
2019-05-11T18:16:50.443Z,12.20
2019-05-11T18:19:19.260Z,12.20
2019-05-11T18:21:48.767Z,12.20
2019-05-11T18:24:17.910Z,12.20
2019-05-11T18:26:48.767Z,12.20
2019-05-11T18:29:18.200Z,12.20
2019-05-11T18:31:48.652Z,12.20
2019-05-11T18:34:17.827Z,12.10
2019-05-11T18:36:48.428Z,12.00
2019-05-11T18:39:18.441Z,12.00
2019-05-11T18:41:48.434Z,12.00
2019-05-11T18:44:38.007Z,11.90
2019-05-11T18:47:08.684Z,11.90
2019-05-11T18:49:38.118Z,11.80
2019-05-11T18:52:08.245Z,11.80
2019-05-11T18:54:38.506Z,11.80
2019-05-11T18:57:08.146Z,11.70
2019-05-11T18:59:37.857Z,11.60
2019-05-11T19:02:08.438Z,11.50
2019-05-11T19:04:38.189Z,11.40
2019-05-11T19:07:16.145Z,11.30
2019-05-11T19:09:37.941Z,11.10
2019-05-11T19:12:08.543Z,11.00
2019-05-11T19:14:38.607Z,10.80
2019-05-11T19:17:07.777Z,10.70
2019-05-11T19:19:38.017Z,10.60
2019-05-11T19:22:09.011Z,10.50
2019-05-11T19:24:38.268Z,10.30
2019-05-11T19:27:08.085Z,10.20
2019-05-11T19:29:37.957Z,10.10
2019-05-11T19:32:10.811Z,10.00
2019-05-11T19:34:38.816Z,9.80
2019-05-11T19:37:08.634Z,9.70
2019-05-11T19:39:38.447Z,9.60
2019-05-11T19:42:07.943Z,9.50
2019-05-11T19:44:56.160Z,9.40
2019-05-11T19:47:24.855Z,9.30
2019-05-11T19:49:53.551Z,9.20
2019-05-11T19:52:23.927Z,9.10
2019-05-11T19:54:52.366Z,9.00
2019-05-11T19:57:21.152Z,9.00
2019-05-11T19:59:49.839Z,8.90
2019-05-11T20:02:19.196Z,8.80
2019-05-11T20:04:48.173Z,8.70
2019-05-11T20:07:18.246Z,8.70
2019-05-11T20:09:47.956Z,8.60
2019-05-11T20:12:17.978Z,8.50
2019-05-11T20:14:48.256Z,8.40
2019-05-11T20:17:18.210Z,8.30
2019-05-11T20:19:49.028Z,8.20
2019-05-11T20:22:19.511Z,8.20
2019-05-11T20:24:48.781Z,8.10
2019-05-11T20:27:18.579Z,8.00
2019-05-11T20:29:47.760Z,7.90
2019-05-11T20:32:18.573Z,7.80
2019-05-11T20:34:48.314Z,7.70
2019-05-11T20:37:18.161Z,7.60
2019-05-11T20:39:48.156Z,7.60
2019-05-11T20:42:18.101Z,7.40
2019-05-11T20:44:46.707Z,7.40
2019-05-11T20:47:17.397Z,7.30
2019-05-11T20:49:48.150Z,7.30
2019-05-11T20:52:17.816Z,7.30
2019-05-11T20:54:47.704Z,7.30
2019-05-11T20:57:18.056Z,7.30
2019-05-11T20:59:47.566Z,7.20
2019-05-11T21:02:18.265Z,7.10
2019-05-11T21:04:46.155Z,7.10
2019-05-11T21:07:14.596Z,7.00
2019-05-11T21:09:48.318Z,7.00
2019-05-11T21:12:18.504Z,6.90
2019-05-11T21:14:48.511Z,6.80
2019-05-11T21:17:18.161Z,6.80
2019-05-11T21:19:47.877Z,6.80
2019-05-11T21:22:16.735Z,6.70
2019-05-11T21:24:49.402Z,6.70
2019-05-11T21:27:19.720Z,6.80
2019-05-11T21:29:45.804Z,6.80
2019-05-11T21:32:15.202Z,6.80
2019-05-11T21:34:43.631Z,6.70
2019-05-11T21:37:12.352Z,6.80
2019-05-11T21:39:43.083Z,6.80
2019-05-11T21:42:13.724Z,6.90
2019-05-11T21:44:42.568Z,7.00
2019-05-11T21:47:10.999Z,7.00
2019-05-11T21:49:40.707Z,7.00
2019-05-11T21:52:09.500Z,7.00
2019-05-11T21:54:38.666Z,7.00
2019-05-11T21:57:08.245Z,7.00
2019-05-11T21:59:38.131Z,6.90
2019-05-11T22:02:08.178Z,6.90
2019-05-11T22:04:38.766Z,6.90
2019-05-11T22:07:08.022Z,6.80
2019-05-11T22:09:38.379Z,6.80
2019-05-11T22:12:07.840Z,6.70
2019-05-11T22:14:38.435Z,6.60
2019-05-11T22:17:27.927Z,6.60
2019-05-11T22:19:58.494Z,6.50
2019-05-11T22:22:28.704Z,6.30
2019-05-11T22:24:58.703Z,6.30
2019-05-11T22:27:27.753Z,6.10
2019-05-11T22:30:01.514Z,6.10
2019-05-11T22:32:30.292Z,6.00
2019-05-11T22:34:59.086Z,5.90
2019-05-11T22:37:27.853Z,5.80
2019-05-11T22:39:57.800Z,5.80
2019-05-11T22:42:28.068Z,5.70
2019-05-11T22:44:56.680Z,5.70
2019-05-11T22:47:25.399Z,5.60
2019-05-11T22:49:53.822Z,5.50
2019-05-11T22:52:35.920Z,5.50
2019-05-11T22:54:52.734Z,5.40
2019-05-11T22:57:21.501Z,5.40
2019-05-11T22:59:50.284Z,5.30
2019-05-11T23:02:19.494Z,5.30
2019-05-11T23:05:08.489Z,5.30
2019-05-11T23:07:41.566Z,5.20
2019-05-11T23:10:09.722Z,5.20
2019-05-11T23:12:38.593Z,5.20
2019-05-11T23:15:14.778Z,5.10
2019-05-11T23:17:43.249Z,5.10
2019-05-11T23:20:33.445Z,5.10
2019-05-11T23:23:01.905Z,5.00
2019-05-11T23:25:30.595Z,5.00
2019-05-11T23:27:59.292Z,5.00
2019-05-11T23:30:28.159Z,5.00
2019-05-11T23:32:58.723Z,5.00
2019-05-11T23:35:28.555Z,5.10
2019-05-11T23:37:58.139Z,5.10
2019-05-11T23:40:28.449Z,5.00
2019-05-11T23:42:57.895Z,5.00
2019-05-11T23:45:27.919Z,5.00
2019-05-11T23:47:58.636Z,5.00
2019-05-11T23:50:28.136Z,5.10
2019-05-11T23:53:06.194Z,5.30
2019-05-11T23:55:28.917Z,5.40
2019-05-11T23:57:57.827Z,5.50
